Time;durP1;ratioP1;P1;durP2;ratioP2;P2;SDS_P1;SDS_P2;PMS_P1;PMS_P2;Temp;Humidity;BMP_temperature;BMP_pressure;BME280_temperature;BME280_humidity;BME280_pressure;Samples;Min_cycle;Max_cycle;Signal;HPM_P1;HPM_P2
2022/02/26 00:01:29;;;;;;;;;;;2.60;1.00;;;;;;5110429;28;19947;-81
2022/02/26 00:03:55;;;;;;;;;;;2.60;1.00;;;;;;5106634;28;19912;-82
2022/02/26 00:06:20;;;;;;;;;;;2.60;1.00;;;;;;5107865;28;20006;-81
2022/02/26 00:08:45;;;;;;;;;;;2.60;1.00;;;;;;5107940;28;20007;-81
2022/02/26 00:11:11;;;;;;;;;;;2.60;1.00;;;;;;5110705;28;19999;-81
2022/02/26 00:13:37;;;;;;;;;;;2.60;1.00;;;;;;5108512;27;20349;-81
2022/02/26 00:16:02;;;;;;;;;;;2.60;1.00;;;;;;5109681;28;20015;-81
2022/02/26 00:18:28;;;;;;;;;;;2.50;1.00;;;;;;5110246;27;19998;-81
2022/02/26 00:20:54;;;;;;;;;;;2.50;1.00;;;;;;5109223;28;19973;-81
2022/02/26 00:23:20;;;;;;;;;;;2.50;1.00;;;;;;5110667;27;19912;-82
2022/02/26 00:25:45;;;;;;;;;;;2.50;1.00;;;;;;5106659;28;19974;-81
2022/02/26 00:28:10;;;;;;;;;;;2.60;1.00;;;;;;5110588;27;19912;-81
2022/02/26 00:30:36;;;;;;;;;;;2.50;1.00;;;;;;5108967;28;19939;-81
2022/02/26 00:33:01;;;;;;;;;;;2.50;1.00;;;;;;5107982;28;20387;-81
2022/02/26 00:35:27;;;;;;;;;;;2.50;1.00;;;;;;5111704;28;20011;-82
2022/02/26 00:37:52;;;;;;;;;;;2.50;1.00;;;;;;5102622;28;19913;-82
2022/02/26 00:40:18;;;;;;;;;;;2.50;1.00;;;;;;5107861;28;19918;-81
2022/02/26 00:42:43;;;;;;;;;;;2.50;1.00;;;;;;5107271;28;19918;-81
2022/02/26 00:45:09;;;;;;;;;;;2.50;1.00;;;;;;5107956;28;19916;-81
2022/02/26 00:47:35;;;;;;;;;;;2.50;1.00;;;;;;5109436;28;20006;-81
2022/02/26 00:50:00;;;;;;;;;;;2.50;1.00;;;;;;5108417;28;20014;-81
2022/02/26 00:52:29;;;;;;;;;;;2.50;1.00;;;;;;5110066;28;20006;-81
2022/02/26 00:54:56;;;;;;;;;;;2.40;1.00;;;;;;5102473;28;20295;-81
2022/02/26 00:57:21;;;;;;;;;;;2.40;1.00;;;;;;5109900;28;19916;-81
2022/02/26 00:59:47;;;;;;;;;;;2.40;1.00;;;;;;5106307;28;20276;-81
2022/02/26 01:02:14;;;;;;;;;;;2.40;1.00;;;;;;5108613;28;19954;-81
2022/02/26 01:04:40;;;;;;;;;;;2.40;1.00;;;;;;5111213;28;19968;-81
2022/02/26 01:07:06;;;;;;;;;;;2.40;1.00;;;;;;5110038;28;19919;-81
2022/02/26 01:09:31;;;;;;;;;;;2.40;1.00;;;;;;5108891;28;19912;-83
2022/02/26 01:11:57;;;;;;;;;;;2.30;1.00;;;;;;5104104;28;19912;-81
2022/02/26 01:14:23;;;;;;;;;;;2.30;1.00;;;;;;5109738;28;19912;-81
2022/02/26 01:16:48;;;;;;;;;;;2.30;1.00;;;;;;5108946;28;19931;-81
2022/02/26 01:19:13;;;;;;;;;;;2.20;1.00;;;;;;5110208;28;19919;-81
2022/02/26 01:21:39;;;;;;;;;;;2.20;1.00;;;;;;5113209;28;19919;-81
2022/02/26 01:24:05;;;;;;;;;;;2.20;1.00;;;;;;5107047;28;19919;-80
2022/02/26 01:26:30;;;;;;;;;;;2.30;1.00;;;;;;5110361;28;19911;-81
2022/02/26 01:28:56;;;;;;;;;;;2.20;1.00;;;;;;5101664;28;19916;-81
2022/02/26 01:31:21;;;;;;;;;;;2.20;1.00;;;;;;5108376;28;20007;-81
2022/02/26 01:33:47;;;;;;;;;;;2.20;1.00;;;;;;5107535;28;20371;-82
2022/02/26 01:36:12;;;;;;;;;;;2.20;1.00;;;;;;5107979;28;19927;-81
2022/02/26 01:38:38;;;;;;;;;;;2.20;1.00;;;;;;5108842;28;19916;-81
2022/02/26 01:41:04;;;;;;;;;;;2.20;1.00;;;;;;5108335;28;19912;-81
2022/02/26 01:43:30;;;;;;;;;;;2.20;1.00;;;;;;5109597;28;19912;-81
2022/02/26 01:45:55;;;;;;;;;;;2.20;1.00;;;;;;5107672;28;19934;-81
2022/02/26 01:48:21;;;;;;;;;;;2.20;1.00;;;;;;5111529;28;19915;-81
2022/02/26 01:50:46;;;;;;;;;;;2.20;1.00;;;;;;5104857;28;19918;-81
2022/02/26 01:53:13;;;;;;;;;;;2.20;1.00;;;;;;5109743;28;19931;-81
2022/02/26 01:55:39;;;;;;;;;;;2.10;1.00;;;;;;5104128;28;20006;-81
2022/02/26 01:58:05;;;;;;;;;;;2.20;1.00;;;;;;5108290;28;19947;-81
2022/02/26 02:00:30;;;;;;;;;;;2.10;1.00;;;;;;5106808;28;19923;-81
2022/02/26 02:02:59;;;;;;;;;;;2.10;1.00;;;;;;5106560;28;19912;-81
2022/02/26 02:05:26;;;;;;;;;;;2.10;1.00;;;;;;5109315;28;19963;-81
2022/02/26 02:07:52;;;;;;;;;;;2.10;1.00;;;;;;5108971;28;19919;-81
2022/02/26 02:10:17;;;;;;;;;;;2.10;1.00;;;;;;5109334;28;19991;-81
2022/02/26 02:12:43;;;;;;;;;;;2.00;1.00;;;;;;5111774;28;20258;-81
2022/02/26 02:15:08;;;;;;;;;;;2.00;1.00;;;;;;5113345;28;19927;-81
2022/02/26 02:17:34;;;;;;;;;;;2.00;1.00;;;;;;5110009;28;20011;-81
2022/02/26 02:19:59;;;;;;;;;;;2.00;1.00;;;;;;5106771;28;20668;-81
2022/02/26 02:22:25;;;;;;;;;;;2.00;1.00;;;;;;5106411;28;19916;-81
2022/02/26 02:24:50;;;;;;;;;;;2.00;1.00;;;;;;5106435;28;19927;-81
2022/02/26 02:27:17;;;;;;;;;;;2.00;1.00;;;;;;5109045;28;19912;-81
2022/02/26 02:29:43;;;;;;;;;;;1.90;1.00;;;;;;5102573;28;19933;-81
2022/02/26 02:32:08;;;;;;;;;;;1.90;1.00;;;;;;5109880;28;19916;-81
2022/02/26 02:34:34;;;;;;;;;;;1.90;1.00;;;;;;5105703;28;20380;-81
2022/02/26 02:36:59;;;;;;;;;;;1.90;1.00;;;;;;5108837;28;19995;-81
2022/02/26 02:39:26;;;;;;;;;;;1.90;1.00;;;;;;5110465;28;20010;-81
2022/02/26 02:41:52;;;;;;;;;;;1.90;1.00;;;;;;5108095;28;19911;-81
2022/02/26 02:44:17;;;;;;;;;;;1.90;1.00;;;;;;5104542;28;19911;-81
2022/02/26 02:46:43;;;;;;;;;;;1.90;1.00;;;;;;5104755;28;19912;-81
2022/02/26 02:49:09;;;;;;;;;;;1.80;1.00;;;;;;5109286;28;19912;-81
2022/02/26 02:51:34;;;;;;;;;;;1.80;1.00;;;;;;5114271;28;20291;-81
2022/02/26 02:54:00;;;;;;;;;;;1.80;1.00;;;;;;5109515;28;19942;-81
2022/02/26 02:56:25;;;;;;;;;;;1.80;1.00;;;;;;5115349;28;19919;-81
2022/02/26 02:58:51;;;;;;;;;;;1.80;1.00;;;;;;5111774;28;19984;-81
2022/02/26 03:01:17;;;;;;;;;;;1.80;1.00;;;;;;5114857;28;19912;-81
2022/02/26 03:03:42;;;;;;;;;;;1.80;1.00;;;;;;5111216;28;19912;-81
2022/02/26 03:06:08;;;;;;;;;;;1.70;1.00;;;;;;5112503;28;20057;-81
2022/02/26 03:08:34;;;;;;;;;;;1.70;1.00;;;;;;5114876;28;19915;-81
2022/02/26 03:10:59;;;;;;;;;;;1.70;1.00;;;;;;5111040;28;20365;-81
2022/02/26 03:13:26;;;;;;;;;;;1.70;1.00;;;;;;5113581;28;20419;-81
2022/02/26 03:15:52;;;;;;;;;;;1.70;1.00;;;;;;5112572;28;20010;-81
2022/02/26 03:18:18;;;;;;;;;;;1.70;1.00;;;;;;5112809;28;19919;-81
2022/02/26 03:20:44;;;;;;;;;;;1.70;1.00;;;;;;5112373;28;19916;-81
2022/02/26 03:23:09;;;;;;;;;;;1.70;1.00;;;;;;5111050;28;19919;-81
2022/02/26 03:25:35;;;;;;;;;;;1.70;1.00;;;;;;5113436;28;19916;-81
2022/02/26 03:28:00;;;;;;;;;;;1.70;1.00;;;;;;5106622;28;19919;-81
2022/02/26 03:30:26;;;;;;;;;;;1.70;1.00;;;;;;5113776;28;20291;-81
2022/02/26 03:32:51;;;;;;;;;;;1.60;1.00;;;;;;5105704;28;19912;-81
2022/02/26 03:35:17;;;;;;;;;;;1.70;1.00;;;;;;5113626;28;19922;-81
2022/02/26 03:37:42;;;;;;;;;;;1.60;1.00;;;;;;5112583;28;19912;-81
2022/02/26 03:40:09;;;;;;;;;;;1.60;1.00;;;;;;5111911;28;20291;-81
2022/02/26 03:42:35;;;;;;;;;;;1.60;1.00;;;;;;5111080;28;19955;-81
2022/02/26 03:45:00;;;;;;;;;;;1.60;1.00;;;;;;5111612;28;19920;-81
2022/02/26 03:47:26;;;;;;;;;;;1.60;1.00;;;;;;5111672;28;19964;-81
2022/02/26 03:49:51;;;;;;;;;;;1.60;1.00;;;;;;5110260;28;19912;-81
2022/02/26 03:52:17;;;;;;;;;;;1.50;1.00;;;;;;5108130;28;19918;-81
2022/02/26 03:54:43;;;;;;;;;;;1.50;1.00;;;;;;5113415;28;19928;-81
2022/02/26 03:57:08;;;;;;;;;;;1.50;1.00;;;;;;5108307;28;20304;-81
2022/02/26 03:59:34;;;;;;;;;;;1.50;1.00;;;;;;5110269;28;21073;-81
2022/02/26 04:01:59;;;;;;;;;;;1.50;1.00;;;;;;5102383;28;19990;-81
2022/02/26 04:04:25;;;;;;;;;;;1.50;1.00;;;;;;5112321;28;19987;-81
2022/02/26 04:06:50;;;;;;;;;;;1.50;1.00;;;;;;5109405;28;20312;-81
2022/02/26 04:09:17;;;;;;;;;;;1.50;1.00;;;;;;5114269;28;19912;-81
2022/02/26 04:11:42;;;;;;;;;;;1.50;1.00;;;;;;5112481;28;19918;-81
2022/02/26 04:14:07;;;;;;;;;;;1.50;1.00;;;;;;5111197;28;19912;-82
2022/02/26 04:16:33;;;;;;;;;;;1.50;1.00;;;;;;5113920;28;19916;-81
2022/02/26 04:18:59;;;;;;;;;;;1.50;1.00;;;;;;5100893;28;20401;-82
2022/02/26 04:21:25;;;;;;;;;;;1.50;1.00;;;;;;5110345;28;19915;-81
2022/02/26 04:23:51;;;;;;;;;;;1.50;1.00;;;;;;5106877;28;20372;-81
2022/02/26 04:26:17;;;;;;;;;;;1.50;1.00;;;;;;5096448;28;20302;-81
2022/02/26 04:28:42;;;;;;;;;;;1.50;1.00;;;;;;5095516;28;19969;-82
2022/02/26 04:31:08;;;;;;;;;;;1.50;1.00;;;;;;5107295;28;20410;-81
2022/02/26 04:33:33;;;;;;;;;;;1.60;1.00;;;;;;5109843;28;19912;-81
2022/02/26 04:35:59;;;;;;;;;;;1.60;1.00;;;;;;5096340;28;19990;-81
2022/02/26 04:38:25;;;;;;;;;;;1.60;1.00;;;;;;5104619;28;19994;-81
2022/02/26 04:40:50;;;;;;;;;;;1.60;1.00;;;;;;5115680;28;19918;-81
2022/02/26 04:43:16;;;;;;;;;;;1.50;1.00;;;;;;5110590;28;20390;-81
2022/02/26 04:45:42;;;;;;;;;;;1.50;1.00;;;;;;5115730;28;19911;-81
2022/02/26 04:48:07;;;;;;;;;;;1.50;1.00;;;;;;5097195;28;19908;-82
2022/02/26 04:50:32;;;;;;;;;;;1.50;1.00;;;;;;5097079;28;19912;-81
2022/02/26 04:52:58;;;;;;;;;;;1.50;1.00;;;;;;5096330;28;19912;-81
2022/02/26 04:55:23;;;;;;;;;;;1.50;1.00;;;;;;5111854;28;20432;-81
2022/02/26 04:57:49;;;;;;;;;;;1.40;1.00;;;;;;5100231;28;19933;-81
2022/02/26 05:00:14;;;;;;;;;;;1.40;1.00;;;;;;5095045;28;19919;-81
2022/02/26 05:02:41;;;;;;;;;;;1.40;1.00;;;;;;5093669;28;19908;-81
2022/02/26 05:05:06;;;;;;;;;;;1.30;1.00;;;;;;5111276;28;19923;-81
2022/02/26 05:07:32;;;;;;;;;;;1.30;1.00;;;;;;5112595;28;20314;-81
2022/02/26 05:09:57;;;;;;;;;;;1.30;1.00;;;;;;5103417;28;20427;-81
2022/02/26 05:12:23;;;;;;;;;;;1.30;1.00;;;;;;5095884;28;19919;-81
2022/02/26 05:14:49;;;;;;;;;;;1.30;1.00;;;;;;5096909;28;19920;-81
2022/02/26 05:17:14;;;;;;;;;;;1.30;1.00;;;;;;5096995;28;19912;-82
2022/02/26 05:19:40;;;;;;;;;;;1.30;1.00;;;;;;5103268;28;20295;-82
2022/02/26 05:22:05;;;;;;;;;;;1.30;1.00;;;;;;5098437;28;19974;-81
2022/02/26 05:24:31;;;;;;;;;;;1.30;1.00;;;;;;5096077;28;19916;-81
2022/02/26 05:26:56;;;;;;;;;;;1.40;1.00;;;;;;5116035;28;19912;-81
2022/02/26 05:29:22;;;;;;;;;;;1.40;1.00;;;;;;5105237;28;19912;-81
2022/02/26 05:31:47;;;;;;;;;;;1.40;1.00;;;;;;5100644;28;20444;-81
2022/02/26 05:34:13;;;;;;;;;;;1.40;1.00;;;;;;5103732;28;19923;-81
2022/02/26 05:36:38;;;;;;;;;;;1.40;1.00;;;;;;5096906;28;19938;-81
2022/02/26 05:39:04;;;;;;;;;;;1.40;1.00;;;;;;5102737;28;19943;-81
2022/02/26 05:41:29;;;;;;;;;;;1.40;1.00;;;;;;5097210;28;19931;-81
2022/02/26 05:43:55;;;;;;;;;;;1.40;1.00;;;;;;5094502;28;19957;-83
2022/02/26 05:46:20;;;;;;;;;;;1.40;1.00;;;;;;5096975;28;19953;-81
2022/02/26 05:48:46;;;;;;;;;;;1.40;1.00;;;;;;5102407;28;19916;-80
2022/02/26 05:51:11;;;;;;;;;;;1.30;1.00;;;;;;5100682;28;19913;-81
2022/02/26 05:53:37;;;;;;;;;;;1.40;1.00;;;;;;5098473;28;19912;-81
2022/02/26 05:56:03;;;;;;;;;;;1.30;1.00;;;;;;5102407;28;20003;-80
2022/02/26 05:58:28;;;;;;;;;;;1.30;1.00;;;;;;5101217;28;19938;-81
2022/02/26 06:00:55;;;;;;;;;;;1.30;1.00;;;;;;5096661;28;19919;-81
2022/02/26 06:03:21;;;;;;;;;;;1.30;1.00;;;;;;5099494;28;19916;-81
2022/02/26 06:05:46;;;;;;;;;;;1.30;1.00;;;;;;5096850;28;19912;-81
2022/02/26 06:08:12;;;;;;;;;;;1.30;1.00;;;;;;5099359;28;20397;-81
2022/02/26 06:10:37;;;;;;;;;;;1.30;1.00;;;;;;5101333;28;19999;-81
2022/02/26 06:13:03;;;;;;;;;;;1.20;1.00;;;;;;5104405;28;19912;-81
2022/02/26 06:15:28;;;;;;;;;;;1.20;1.00;;;;;;5101703;28;19923;-81
2022/02/26 06:17:54;;;;;;;;;;;1.20;1.00;;;;;;5094623;28;20295;-81
2022/02/26 06:20:20;;;;;;;;;;;1.20;1.00;;;;;;5104631;28;19916;-81
2022/02/26 06:22:45;;;;;;;;;;;1.20;1.00;;;;;;5112135;28;19916;-81
2022/02/26 06:25:10;;;;;;;;;;;1.20;1.00;;;;;;5108242;28;19922;-81
2022/02/26 06:27:40;;;;;;;;;;;1.20;1.00;;;;;;5113207;28;20304;-81
2022/02/26 06:30:06;;;;;;;;;;;1.20;1.00;;;;;;5107554;28;19912;-81
2022/02/26 06:32:31;;;;;;;;;;;1.20;1.00;;;;;;5107545;28;19912;-81
2022/02/26 06:34:57;;;;;;;;;;;1.30;1.00;;;;;;5110626;28;20435;-81
2022/02/26 06:37:22;;;;;;;;;;;1.30;1.00;;;;;;5111529;28;19912;-82
2022/02/26 06:39:48;;;;;;;;;;;1.40;1.00;;;;;;5111798;28;20010;-82
2022/02/26 06:42:13;;;;;;;;;;;1.50;1.00;;;;;;5112582;28;20485;-82
2022/02/26 06:44:39;;;;;;;;;;;1.60;1.00;;;;;;5099266;28;19916;-82
2022/02/26 06:47:04;;;;;;;;;;;1.70;1.00;;;;;;5109044;28;19919;-82
2022/02/26 06:49:30;;;;;;;;;;;1.80;1.00;;;;;;5110991;28;20356;-82
2022/02/26 06:51:55;;;;;;;;;;;2.00;1.00;;;;;;5117953;28;19915;-82
2022/02/26 06:54:22;;;;;;;;;;;2.20;1.00;;;;;;5117132;28;19918;-82
2022/02/26 06:56:48;;;;;;;;;;;2.50;1.00;;;;;;5105509;28;19958;-82
2022/02/26 06:59:14;;;;;;;;;;;2.70;1.00;;;;;;5097937;28;19909;-82
2022/02/26 07:01:40;;;;;;;;;;;2.90;1.00;;;;;;5106680;28;20306;-82
2022/02/26 07:04:06;;;;;;;;;;;3.10;1.00;;;;;;5117694;28;19915;-82
2022/02/26 07:06:31;;;;;;;;;;;3.40;99.90;;;;;;5114852;28;19912;-82
2022/02/26 07:08:57;;;;;;;;;;;3.70;99.90;;;;;;5111429;28;19912;-82
2022/02/26 07:11:23;;;;;;;;;;;4.00;30.20;;;;;;5119658;28;19908;-83
2022/02/26 07:13:48;;;;;;;;;;;5.00;99.90;;;;;;5118582;28;19908;-82
2022/02/26 07:16:14;;;;;;;;;;;6.40;1.00;;;;;;5117568;28;20434;-82
2022/02/26 07:18:40;;;;;;;;;;;7.90;99.90;;;;;;5118703;28;19912;-83
2022/02/26 07:21:05;;;;;;;;;;;9.10;1.00;;;;;;5116247;28;19950;-83
2022/02/26 07:23:31;;;;;;;;;;;9.30;1.00;;;;;;5106156;28;19985;-83
2022/02/26 07:25:56;;;;;;;;;;;9.30;1.00;;;;;;5113267;28;19954;-82
2022/02/26 07:28:22;;;;;;;;;;;9.20;1.00;;;;;;5113806;28;19965;-83
2022/02/26 07:30:51;;;;;;;;;;;9.00;1.00;;;;;;5108686;28;20124;-83
2022/02/26 07:33:17;;;;;;;;;;;8.60;1.00;;;;;;5110360;28;20399;-83
2022/02/26 07:35:43;;;;;;;;;;;8.50;1.00;;;;;;5104192;28;19919;-82
2022/02/26 07:38:08;;;;;;;;;;;8.60;1.00;;;;;;5106245;28;21615;-82
2022/02/26 07:40:36;;;;;;;;;;;8.60;1.00;;;;;;5111611;28;19976;-82
2022/02/26 07:43:02;;;;;;;;;;;8.80;1.00;;;;;;5110602;28;19919;-82
2022/02/26 07:45:27;;;;;;;;;;;8.90;1.00;;;;;;5110754;28;19915;-82
2022/02/26 07:47:53;;;;;;;;;;;9.20;1.00;;;;;;5112861;28;19912;-82
2022/02/26 07:50:18;;;;;;;;;;;9.30;1.00;;;;;;5116857;28;19909;-82
2022/02/26 07:52:44;;;;;;;;;;;9.60;1.00;;;;;;5107449;28;20368;-82
2022/02/26 07:55:09;;;;;;;;;;;9.90;1.00;;;;;;5110769;28;20285;-82
2022/02/26 07:57:35;;;;;;;;;;;9.90;1.00;;;;;;5114060;28;19908;-82
2022/02/26 08:00:00;;;;;;;;;;;9.90;1.00;;;;;;5112148;28;19928;-82
2022/02/26 08:02:26;;;;;;;;;;;10.20;1.00;;;;;;5113913;28;19990;-82
2022/02/26 08:04:51;;;;;;;;;;;10.70;1.00;;;;;;5110576;28;19916;-83
2022/02/26 08:07:17;;;;;;;;;;;11.40;1.00;;;;;;5114606;28;19975;-82
2022/02/26 08:09:43;;;;;;;;;;;11.80;1.00;;;;;;5110876;28;19908;-83
2022/02/26 08:12:09;;;;;;;;;;;11.30;1.00;;;;;;5115700;28;19923;-82
2022/02/26 08:14:35;;;;;;;;;;;10.50;1.00;;;;;;5111552;28;19911;-82
2022/02/26 08:17:00;;;;;;;;;;;9.70;1.00;;;;;;5111426;28;19919;-82
2022/02/26 08:19:25;;;;;;;;;;;9.00;1.00;;;;;;5116515;28;19912;-82
2022/02/26 08:21:51;;;;;;;;;;;8.30;1.00;;;;;;5118613;28;19912;-82
2022/02/26 08:24:17;;;;;;;;;;;7.70;1.00;;;;;;5116172;28;19916;-82
2022/02/26 08:26:44;;;;;;;;;;;7.30;1.00;;;;;;5108119;28;20017;-83
2022/02/26 08:29:09;;;;;;;;;;;6.80;1.00;;;;;;5114663;28;19923;-82
2022/02/26 08:31:35;;;;;;;;;;;6.20;1.00;;;;;;5113346;28;19912;-83
2022/02/26 08:34:00;;;;;;;;;;;5.70;1.00;;;;;;5114536;28;19912;-82
2022/02/26 08:36:26;;;;;;;;;;;5.20;1.00;;;;;;5116707;28;20356;-82
2022/02/26 08:38:51;;;;;;;;;;;4.80;1.00;;;;;;5107510;28;19951;-82
2022/02/26 08:41:18;;;;;;;;;;;4.70;1.00;;;;;;5114160;28;19919;-81
2022/02/26 08:43:43;;;;;;;;;;;4.50;1.00;;;;;;5110795;28;19912;-82
2022/02/26 08:46:09;;;;;;;;;;;4.50;52.20;;;;;;5115660;28;20020;-81
2022/02/26 08:48:34;;;;;;;;;;;4.40;99.90;;;;;;5113391;28;19918;-82
2022/02/26 08:51:00;;;;;;;;;;;4.50;99.90;;;;;;5115401;28;19916;-81
2022/02/26 08:53:25;;;;;;;;;;;4.50;99.90;;;;;;5114202;28;20006;-81
2022/02/26 08:55:51;;;;;;;;;;;4.50;99.90;;;;;;5110687;28;19922;-81
2022/02/26 08:58:16;;;;;;;;;;;4.60;99.90;;;;;;5115649;28;19934;-82
2022/02/26 09:00:42;;;;;;;;;;;4.90;99.90;;;;;;5112044;28;19911;-81
2022/02/26 09:03:08;;;;;;;;;;;5.20;99.90;;;;;;5110305;28;19919;-81
2022/02/26 09:05:33;;;;;;;;;;;5.40;99.90;;;;;;5116049;28;19912;-81
2022/02/26 09:07:58;;;;;;;;;;;5.50;1.00;;;;;;5111963;28;19912;-81
2022/02/26 09:10:24;;;;;;;;;;;5.80;1.00;;;;;;5112653;28;19916;-81
2022/02/26 09:12:50;;;;;;;;;;;6.10;1.00;;;;;;5109347;28;20015;-82
2022/02/26 09:15:16;;;;;;;;;;;6.40;1.00;;;;;;5109783;28;19989;-81
2022/02/26 09:17:42;;;;;;;;;;;6.60;1.00;;;;;;5113509;28;19933;-81
2022/02/26 09:20:10;;;;;;;;;;;6.70;1.00;;;;;;5111009;28;19920;-82
2022/02/26 09:22:35;;;;;;;;;;;6.70;1.00;;;;;;5110974;28;19916;-82
2022/02/26 09:25:01;;;;;;;;;;;6.80;1.00;;;;;;5110818;28;20302;-81
2022/02/26 09:27:26;;;;;;;;;;;6.90;1.00;;;;;;5112490;28;19919;-81
2022/02/26 09:29:52;;;;;;;;;;;6.90;1.00;;;;;;5103049;28;19912;-80
2022/02/26 09:32:18;;;;;;;;;;;6.90;1.00;;;;;;5110721;27;19912;-81
2022/02/26 09:34:44;;;;;;;;;;;6.90;1.00;;;;;;5108217;28;20019;-82
2022/02/26 09:37:09;;;;;;;;;;;6.90;1.00;;;;;;5110849;28;19943;-81
2022/02/26 09:39:35;;;;;;;;;;;7.10;1.00;;;;;;5112578;28;19912;-80
2022/02/26 09:42:02;;;;;;;;;;;7.20;1.00;;;;;;5109593;28;20404;-81
2022/02/26 09:44:28;;;;;;;;;;;7.30;1.00;;;;;;5110802;28;20068;-81
2022/02/26 09:46:53;;;;;;;;;;;7.50;1.00;;;;;;5107549;28;19966;-81
2022/02/26 09:49:19;;;;;;;;;;;7.70;1.00;;;;;;5111112;28;19915;-81
2022/02/26 09:51:45;;;;;;;;;;;7.60;1.00;;;;;;5109156;28;19912;-79
2022/02/26 09:54:10;;;;;;;;;;;7.60;1.00;;;;;;5103850;28;19924;-82
2022/02/26 09:56:36;;;;;;;;;;;7.50;1.00;;;;;;5110695;28;19912;-81
2022/02/26 09:59:02;;;;;;;;;;;7.30;1.00;;;;;;5109376;28;19908;-81
2022/02/26 10:01:27;;;;;;;;;;;7.30;1.00;;;;;;5115485;28;19908;-82
2022/02/26 10:04:05;;;;;;;;;;;7.30;1.00;;;;;;5112283;28;19957;-82
2022/02/26 10:06:30;;;;;;;;;;;7.30;1.00;;;;;;5112476;28;19956;-82
2022/02/26 10:08:57;;;;;;;;;;;7.30;1.00;;;;;;5113609;28;19924;-81
2022/02/26 10:11:26;;;;;;;;;;;7.40;1.00;;;;;;5108908;28;19912;-81
2022/02/26 10:14:02;;;;;;;;;;;7.40;1.00;;;;;;5112249;28;20277;-81
2022/02/26 10:16:47;;;;;;;;;;;7.40;1.00;;;;;;5109529;28;19951;-81
2022/02/26 10:19:24;;;;;;;;;;;7.40;1.00;;;;;;5115488;28;20503;-81
2022/02/26 10:21:51;;;;;;;;;;;7.60;1.00;;;;;;5111662;28;19920;-80
2022/02/26 10:24:17;;;;;;;;;;;7.80;1.00;;;;;;5112959;28;20337;-81
2022/02/26 10:26:50;;;;;;;;;;;8.20;1.00;;;;;;5112593;27;19918;-80
2022/02/26 10:29:16;;;;;;;;;;;8.40;1.00;;;;;;5109561;28;19912;-79
2022/02/26 10:32:00;;;;;;;;;;;8.50;1.00;;;;;;5113409;27;19912;-80
2022/02/26 10:34:30;;;;;;;;;;;8.70;1.00;;;;;;5112511;28;20034;-78
2022/02/26 10:36:56;;;;;;;;;;;8.80;1.00;;;;;;5115341;28;19954;-79
2022/02/26 10:39:30;;;;;;;;;;;9.00;1.00;;;;;;5118989;28;19919;-80
2022/02/26 10:41:55;;;;;;;;;;;9.10;1.00;;;;;;5118125;28;19935;-80
2022/02/26 10:44:21;;;;;;;;;;;9.50;1.00;;;;;;5119009;28;19911;-80
2022/02/26 10:46:47;;;;;;;;;;;10.10;1.00;;;;;;5115503;28;19919;-80
2022/02/26 10:49:14;;;;;;;;;;;12.00;1.00;;;;;;5117910;28;19919;-80
2022/02/26 10:51:40;;;;;;;;;;;13.80;1.00;;;;;;5121300;28;20411;-79
2022/02/26 10:54:07;;;;;;;;;;;14.90;1.00;;;;;;5110486;28;19911;-80
2022/02/26 10:56:37;;;;;;;;;;;16.00;1.00;;;;;;5105727;28;20000;-80
2022/02/26 10:59:04;;;;;;;;;;;16.40;1.00;;;;;;5105760;28;19916;-80
2022/02/26 11:01:30;;;;;;;;;;;16.70;1.00;;;;;;5106852;28;19916;-80
2022/02/26 11:03:56;;;;;;;;;;;16.30;1.00;;;;;;5111392;28;19912;-79
2022/02/26 11:06:22;;;;;;;;;;;15.90;1.00;;;;;;5103766;28;20261;-79
2022/02/26 11:08:49;;;;;;;;;;;15.50;1.00;;;;;;5108241;28;19912;-80
2022/02/26 11:11:14;;;;;;;;;;;14.70;99.90;;;;;;5108390;28;20022;-80
2022/02/26 11:14:12;;;;;;;;;;;15.30;1.00;;;;;;5111686;28;19939;-78
2022/02/26 11:16:37;;;;;;;;;;;17.00;1.00;;;;;;5107693;28;19916;-81
2022/02/26 11:19:04;;;;;;;;;;;17.80;1.00;;;;;;5104715;28;19926;-79
2022/02/26 11:21:29;;;;;;;;;;;17.10;99.90;;;;;;5104951;28;20001;-80
2022/02/26 11:23:55;;;;;;;;;;;16.50;99.90;;;;;;5104998;28;19920;-79
2022/02/26 11:26:21;;;;;;;;;;;16.50;99.90;;;;;;5106772;28;19923;-80
2022/02/26 11:28:51;;;;;;;;;;;16.60;99.90;;;;;;5105273;28;19912;-80
2022/02/26 11:31:26;;;;;;;;;;;17.00;99.90;;;;;;5108489;28;19911;-80
2022/02/26 11:33:52;;;;;;;;;;;18.50;99.90;;;;;;5103753;28;19913;-80
2022/02/26 11:36:17;;;;;;;;;;;18.80;99.90;;;;;;5108089;28;19963;-80
2022/02/26 11:38:45;;;;;;;;;;;18.30;99.90;;;;;;5109008;28;19919;-81
2022/02/26 11:41:16;;;;;;;;;;;19.40;99.90;;;;;;5110180;28;19934;-80
2022/02/26 11:43:44;;;;;;;;;;;19.20;99.90;;;;;;5106539;28;20315;-81
2022/02/26 11:46:16;;;;;;;;;;;20.00;99.90;;;;;;5109923;28;19915;-80
2022/02/26 11:48:41;;;;;;;;;;;19.60;99.90;;;;;;5120645;28;19911;-81
2022/02/26 11:51:12;;;;;;;;;;;20.90;99.90;;;;;;5109628;28;20334;-82
2022/02/26 11:53:45;;;;;;;;;;;22.10;99.90;;;;;;5105786;28;20458;-80
2022/02/26 11:56:10;;;;;;;;;;;23.00;99.90;;;;;;5109273;28;19927;-81
2022/02/26 11:58:37;;;;;;;;;;;23.60;99.90;;;;;;5108872;28;19908;-81
2022/02/26 12:01:11;;;;;;;;;;;23.30;99.90;;;;;;5107220;28;20115;-80
2022/02/26 12:03:44;;;;;;;;;;;21.80;99.90;;;;;;5108163;28;19915;-81
2022/02/26 12:06:12;;;;;;;;;;;22.40;99.90;;;;;;5105912;28;19920;-80
2022/02/26 12:08:50;;;;;;;;;;;22.70;99.90;;;;;;5112275;28;19916;-80
2022/02/26 12:11:31;;;;;;;;;;;23.20;99.90;;;;;;5113137;28;20003;-81
2022/02/26 12:13:58;;;;;;;;;;;23.20;99.90;;;;;;5108170;28;19944;-80
2022/02/26 12:16:52;;;;;;;;;;;21.90;99.90;;;;;;5118608;28;19935;-80
2022/02/26 12:19:23;;;;;;;;;;;21.50;99.90;;;;;;5106649;28;19912;-80
2022/02/26 12:21:49;;;;;;;;;;;22.40;99.90;;;;;;5114270;28;19979;-81
2022/02/26 12:24:16;;;;;;;;;;;21.90;99.90;;;;;;5111542;28;19983;-80
2022/02/26 12:26:48;;;;;;;;;;;21.50;99.90;;;;;;5108472;28;19926;-81
2022/02/26 12:29:26;;;;;;;;;;;20.80;99.90;;;;;;5114022;28;19958;-80
2022/02/26 12:32:11;;;;;;;;;;;20.10;99.90;;;;;;5107807;28;19912;-80
2022/02/26 12:35:01;;;;;;;;;;;20.50;99.90;;;;;;5110375;28;19919;-80
2022/02/26 12:37:28;;;;;;;;;;;21.40;99.90;;;;;;5099987;28;19923;-80
2022/02/26 12:39:58;;;;;;;;;;;21.20;99.90;;;;;;5111095;28;19912;-80
2022/02/26 12:42:24;;;;;;;;;;;21.80;99.90;;;;;;5114042;28;19916;-80
2022/02/26 12:44:51;;;;;;;;;;;22.60;99.90;;;;;;5107522;28;19912;-81
2022/02/26 12:47:17;;;;;;;;;;;22.70;99.90;;;;;;5122020;28;19912;-80
2022/02/26 12:49:42;;;;;;;;;;;21.80;99.90;;;;;;5121889;28;19912;-80
2022/02/26 12:52:09;;;;;;;;;;;21.30;99.90;;;;;;5121413;28;19916;-80
2022/02/26 12:54:35;;;;;;;;;;;20.70;99.90;;;;;;5117520;28;19912;-80
2022/02/26 12:57:01;;;;;;;;;;;19.90;99.90;;;;;;5119208;28;19937;-81
2022/02/26 12:59:28;;;;;;;;;;;19.60;99.90;;;;;;5120146;28;19912;-80
2022/02/26 13:01:54;;;;;;;;;;;19.40;99.90;;;;;;5118970;28;20044;-80
2022/02/26 13:04:21;;;;;;;;;;;18.20;99.90;;;;;;5115514;28;19924;-80
2022/02/26 13:06:53;;;;;;;;;;;18.10;99.90;;;;;;5119826;28;19912;-80
2022/02/26 13:09:19;;;;;;;;;;;17.80;99.90;;;;;;5118548;28;19962;-80
2022/02/26 13:11:49;;;;;;;;;;;18.50;99.90;;;;;;5113498;28;19919;-80
2022/02/26 13:14:15;;;;;;;;;;;18.30;99.90;;;;;;5118227;28;19979;-80
2022/02/26 13:16:43;;;;;;;;;;;18.60;99.90;;;;;;5113998;28;19916;-81
2022/02/26 13:19:09;;;;;;;;;;;18.20;99.90;;;;;;5104308;28;19920;-81
2022/02/26 13:21:39;;;;;;;;;;;17.80;99.90;;;;;;5111321;28;19955;-79
2022/02/26 13:24:05;;;;;;;;;;;17.90;99.90;;;;;;5111543;28;19916;-79
2022/02/26 13:26:32;;;;;;;;;;;18.00;99.90;;;;;;5116919;28;19912;-80
2022/02/26 13:28:57;;;;;;;;;;;18.00;99.90;;;;;;5110302;28;20007;-79
2022/02/26 13:31:36;;;;;;;;;;;17.60;99.90;;;;;;5102288;28;19978;-80
2022/02/26 13:34:14;;;;;;;;;;;17.50;99.90;;;;;;5112427;28;19907;-82
2022/02/26 13:36:40;;;;;;;;;;;17.30;99.90;;;;;;5114960;28;19915;-81
2022/02/26 13:39:05;;;;;;;;;;;16.80;99.90;;;;;;5102544;28;20007;-82
2022/02/26 13:41:33;;;;;;;;;;;17.10;99.90;;;;;;5118233;28;19933;-82
2022/02/26 13:43:59;;;;;;;;;;;16.90;99.90;;;;;;5111534;28;20007;-82
2022/02/26 13:46:27;;;;;;;;;;;16.30;99.90;;;;;;5094283;28;20413;-80
2022/02/26 13:48:52;;;;;;;;;;;16.60;99.90;;;;;;5109410;28;20002;-82
2022/02/26 13:51:20;;;;;;;;;;;16.70;99.90;;;;;;5113911;28;19982;-82
2022/02/26 13:53:45;;;;;;;;;;;16.30;99.90;;;;;;5114733;28;19908;-82
2022/02/26 13:56:11;;;;;;;;;;;16.60;99.90;;;;;;5111707;28;19919;-82
2022/02/26 13:58:37;;;;;;;;;;;16.70;99.90;;;;;;5111381;28;19911;-81
2022/02/26 14:01:06;;;;;;;;;;;16.50;99.90;;;;;;5111552;28;19915;-81
2022/02/26 14:03:35;;;;;;;;;;;16.30;99.90;;;;;;5100349;28;19919;-81
2022/02/26 14:06:05;;;;;;;;;;;16.60;99.90;;;;;;5106701;28;19908;-81
2022/02/26 14:08:31;;;;;;;;;;;16.80;99.90;;;;;;5096978;28;19934;-81
2022/02/26 14:10:56;;;;;;;;;;;16.40;99.90;;;;;;5109919;28;19991;-81
2022/02/26 14:13:22;;;;;;;;;;;16.00;99.90;;;;;;5099921;28;19912;-81
2022/02/26 14:15:48;;;;;;;;;;;15.70;99.90;;;;;;5109383;28;19922;-82
2022/02/26 14:18:22;;;;;;;;;;;15.60;99.90;;;;;;5107098;28;19938;-83
2022/02/26 14:20:49;;;;;;;;;;;15.40;99.90;;;;;;5109950;28;19919;-81
2022/02/26 14:23:14;;;;;;;;;;;15.20;99.90;;;;;;5104172;28;19922;-81
2022/02/26 14:25:41;;;;;;;;;;;15.00;99.90;;;;;;5107971;28;19916;-81
2022/02/26 14:28:11;;;;;;;;;;;14.60;99.90;;;;;;5106950;28;20287;-82
2022/02/26 14:30:40;;;;;;;;;;;14.40;99.90;;;;;;5105613;28;19995;-83
2022/02/26 14:33:06;;;;;;;;;;;14.70;99.90;;;;;;5116955;28;19946;-82